createdAt,value
2018-05-06T00:01:22.424Z,76.80
2018-05-06T00:03:48.825Z,76.70
2018-05-06T00:06:15.990Z,76.60
2018-05-06T00:08:42.392Z,76.60
2018-05-06T00:11:08.789Z,76.70
2018-05-06T00:13:35.183Z,76.10
2018-05-06T00:16:01.606Z,76.30
2018-05-06T00:18:28.768Z,75.50
2018-05-06T00:20:55.155Z,75.40
2018-05-06T00:23:21.569Z,75.50
2018-05-06T00:25:47.972Z,76.10
2018-05-06T00:28:14.379Z,76.30
2018-05-06T00:30:41.543Z,76.90
2018-05-06T00:33:08.004Z,76.80
2018-05-06T00:35:34.395Z,77.20
2018-05-06T00:38:01.528Z,77.30
2018-05-06T00:40:27.923Z,77.20
2018-05-06T00:42:54.363Z,76.60
2018-05-06T00:45:20.755Z,76.80
2018-05-06T00:47:47.154Z,77.20
2018-05-06T00:50:13.551Z,77.10
2018-05-06T00:52:39.933Z,77.40
2018-05-06T00:55:07.072Z,76.60
2018-05-06T00:57:33.526Z,76.50
2018-05-06T00:59:59.926Z,76.60
2018-05-06T01:02:26.322Z,76.70
2018-05-06T01:04:52.721Z,76.90
2018-05-06T01:07:19.879Z,78.10
2018-05-06T01:09:47.018Z,78.80
2018-05-06T01:12:14.169Z,79.80
2018-05-06T01:14:41.309Z,79.00
2018-05-06T01:17:08.456Z,78.50
2018-05-06T01:19:35.641Z,78.80
2018-05-06T01:22:02.037Z,78.10
2018-05-06T01:24:29.171Z,80.00
2018-05-06T01:26:55.552Z,80.00
2018-05-06T01:29:21.982Z,80.10
2018-05-06T01:31:48.418Z,80.30
2018-05-06T01:34:14.819Z,80.30
2018-05-06T01:36:41.953Z,80.00
2018-05-06T01:39:09.813Z,79.80
2018-05-06T01:41:36.204Z,79.70
2018-05-06T01:44:02.743Z,79.50
2018-05-06T01:46:29.166Z,79.30
2018-05-06T01:48:55.579Z,79.50
2018-05-06T01:51:22.759Z,79.40
2018-05-06T01:53:49.152Z,79.30
2018-05-06T01:56:15.583Z,79.60
2018-05-06T01:58:42.711Z,80.50
2018-05-06T02:01:09.141Z,80.30
2018-05-06T02:03:35.588Z,81.10
2018-05-06T02:06:02.763Z,81.20
2018-05-06T02:08:29.904Z,81.00
2018-05-06T02:10:57.043Z,81.00
2018-05-06T02:13:23.437Z,81.00
2018-05-06T02:15:49.857Z,81.50
2018-05-06T02:18:17.025Z,81.50
2018-05-06T02:20:43.435Z,81.50
2018-05-06T02:23:09.826Z,81.80
2018-05-06T02:25:37.104Z,81.80
2018-05-06T02:28:03.531Z,82.20
2018-05-06T02:30:30.680Z,82.00
2018-05-06T02:32:57.826Z,82.20
2018-05-06T02:35:24.963Z,82.30
2018-05-06T02:37:52.119Z,82.50
2018-05-06T02:40:18.551Z,82.50
2018-05-06T02:42:45.683Z,83.40
2018-05-06T02:45:12.126Z,82.50
2018-05-06T02:47:39.278Z,82.60
2018-05-06T02:50:05.699Z,82.50
2018-05-06T02:52:33.566Z,82.20
2018-05-06T02:55:00.695Z,82.30
2018-05-06T02:57:27.137Z,82.30
2018-05-06T02:59:53.551Z,82.50
2018-05-06T03:02:19.957Z,82.40
2018-05-06T03:04:46.406Z,82.20
2018-05-06T03:07:12.906Z,81.90
2018-05-06T03:09:40.103Z,81.60
2018-05-06T03:12:06.504Z,81.60
2018-05-06T03:14:32.892Z,81.30
2018-05-06T03:16:59.284Z,80.90
2018-05-06T03:19:25.674Z,81.50
2018-05-06T03:21:52.814Z,81.90
2018-05-06T03:24:19.949Z,82.40
2018-05-06T03:26:46.340Z,82.10
2018-05-06T03:29:12.824Z,82.00
2018-05-06T03:31:40.707Z,82.40
2018-05-06T03:34:07.849Z,82.00
2018-05-06T03:36:34.224Z,82.00
2018-05-06T03:39:00.668Z,82.30
2018-05-06T03:41:27.078Z,82.10
2018-05-06T03:43:53.516Z,81.90
2018-05-06T03:46:19.916Z,82.30
2018-05-06T03:48:47.064Z,82.80
2018-05-06T03:51:14.380Z,82.30
2018-05-06T03:53:40.783Z,82.70
2018-05-06T04:09:37.994Z,82.00
2018-05-06T04:12:05.226Z,82.50
2018-05-06T04:14:31.726Z,82.40
2018-05-06T04:16:58.139Z,82.70
2018-05-06T04:19:24.540Z,82.70
2018-05-06T04:21:51.676Z,83.70
2018-05-06T04:24:18.083Z,83.10
2018-05-06T04:26:44.494Z,83.70
2018-05-06T04:29:10.896Z,83.50
2018-05-06T04:31:38.048Z,83.60
2018-05-06T04:34:05.198Z,83.90
2018-05-06T04:36:32.341Z,84.00
2018-05-06T04:38:59.470Z,84.10
2018-05-06T04:54:31.755Z,85.10
2018-05-06T04:56:58.191Z,85.10
2018-05-06T04:59:25.311Z,84.40
2018-05-06T05:01:51.803Z,84.40
2018-05-06T05:04:18.215Z,84.00
2018-05-06T05:06:44.590Z,84.60
2018-05-06T05:09:10.986Z,84.70
2018-05-06T05:11:37.379Z,84.80
2018-05-06T05:14:03.774Z,86.00
2018-05-06T05:16:30.227Z,86.30
2018-05-06T05:18:57.412Z,86.70
2018-05-06T05:21:24.559Z,84.90
2018-05-06T05:23:51.484Z,85.80
2018-05-06T05:26:17.900Z,84.60
2018-05-06T05:28:44.311Z,83.50
2018-05-06T05:31:10.704Z,82.90
2018-05-06T05:33:37.838Z,79.70
2018-05-06T05:36:04.235Z,79.70
2018-05-06T05:38:30.611Z,80.00
2018-05-06T05:40:57.006Z,75.80
2018-05-06T05:43:23.416Z,75.90
2018-05-06T05:45:49.865Z,73.10
2018-05-06T05:48:16.277Z,71.60
2018-05-06T05:50:42.674Z,67.40
2018-05-06T05:53:09.077Z,66.90
2018-05-06T05:55:35.555Z,64.30
2018-05-06T05:58:01.901Z,61.50
2018-05-06T06:00:28.356Z,59.90
2018-05-06T06:02:54.741Z,57.70
2018-05-06T06:05:21.135Z,56.30
2018-05-06T06:07:47.594Z,56.20
2018-05-06T06:10:14.032Z,54.70
2018-05-06T06:12:41.203Z,54.70
2018-05-06T06:15:08.439Z,54.50
2018-05-06T06:17:35.571Z,53.40
2018-05-06T06:20:01.999Z,53.80
2018-05-06T06:22:28.394Z,54.10
2018-05-06T06:24:54.784Z,52.50
2018-05-06T06:27:21.919Z,52.50
2018-05-06T06:29:49.792Z,52.70
2018-05-06T06:32:16.214Z,52.70
2018-05-06T06:34:44.108Z,52.00
2018-05-06T06:37:12.085Z,52.00
2018-05-06T06:39:39.265Z,52.90
2018-05-06T06:42:05.671Z,52.90
2018-05-06T06:44:32.816Z,52.50
2018-05-06T06:46:59.237Z,52.40
2018-05-06T06:49:26.460Z,51.30
2018-05-06T06:51:52.904Z,51.30
2018-05-06T06:54:19.314Z,51.30
2018-05-06T06:56:45.789Z,51.20
2018-05-06T06:59:12.923Z,52.90
2018-05-06T07:01:39.341Z,52.90
2018-05-06T07:04:05.740Z,51.70
2018-05-06T07:06:32.134Z,51.70
2018-05-06T07:08:58.518Z,50.90
2018-05-06T07:11:24.955Z,52.10
2018-05-06T07:13:51.363Z,51.20
2018-05-06T07:16:17.771Z,50.50
2018-05-06T07:18:45.066Z,50.30
2018-05-06T07:21:11.498Z,50.30
2018-05-06T07:23:37.867Z,50.30
2018-05-06T07:26:04.340Z,49.90
2018-05-06T07:28:30.764Z,50.10
2018-05-06T07:30:57.194Z,50.30
2018-05-06T07:33:24.322Z,47.90
2018-05-06T07:35:50.735Z,47.80
2018-05-06T07:38:17.133Z,48.30
2018-05-06T07:40:43.523Z,47.60
2018-05-06T07:43:09.924Z,47.90
2018-05-06T07:45:36.336Z,48.00
2018-05-06T07:48:02.735Z,47.50
2018-05-06T07:50:29.854Z,48.20
2018-05-06T07:52:56.251Z,48.20
2018-05-06T07:55:22.706Z,47.70
2018-05-06T07:57:49.096Z,46.90
2018-05-06T08:00:16.244Z,47.20
2018-05-06T08:02:42.645Z,47.20
2018-05-06T08:05:09.063Z,47.20
2018-05-06T08:07:36.255Z,47.50
2018-05-06T08:10:03.432Z,47.50
2018-05-06T08:12:29.819Z,47.40
2018-05-06T08:14:56.207Z,47.30
2018-05-06T08:17:22.586Z,47.30
2018-05-06T08:19:49.752Z,46.90
2018-05-06T08:22:16.184Z,46.90
2018-05-06T08:24:43.447Z,45.90
2018-05-06T08:27:09.834Z,45.90
2018-05-06T08:29:36.230Z,44.60
2018-05-06T08:32:02.712Z,45.90
2018-05-06T08:34:29.871Z,46.30
2018-05-06T08:36:56.248Z,46.40
2018-05-06T08:39:22.655Z,46.60
2018-05-06T08:41:49.788Z,43.50
2018-05-06T08:44:16.187Z,42.90
2018-05-06T08:46:42.592Z,45.20
2018-05-06T08:49:08.995Z,44.30
2018-05-06T08:51:36.163Z,46.40
2018-05-06T08:54:02.572Z,46.40
2018-05-06T08:56:29.706Z,45.50
2018-05-06T08:58:57.591Z,45.60
2018-05-06T09:01:24.735Z,44.80
2018-05-06T09:03:51.154Z,44.80
2018-05-06T09:06:17.567Z,44.40
2018-05-06T09:08:43.985Z,44.90
2018-05-06T09:11:10.394Z,44.30
2018-05-06T09:13:37.493Z,44.00
2018-05-06T09:16:03.908Z,44.00
2018-05-06T09:18:30.329Z,46.10
2018-05-06T09:20:56.706Z,44.90
2018-05-06T09:23:23.096Z,45.40
2018-05-06T09:25:49.496Z,43.90
2018-05-06T09:28:15.910Z,42.30
2018-05-06T09:30:43.077Z,41.40
2018-05-06T09:33:10.277Z,42.30
2018-05-06T09:35:36.675Z,42.20
2018-05-06T09:38:03.077Z,42.50
2018-05-06T09:40:29.473Z,42.10
2018-05-06T09:42:55.927Z,42.20
2018-05-06T09:45:22.327Z,42.60
2018-05-06T09:47:48.739Z,41.10
2018-05-06T09:50:15.863Z,42.60
2018-05-06T09:52:42.995Z,40.80
2018-05-06T09:55:09.382Z,41.20
2018-05-06T09:57:35.770Z,41.90
2018-05-06T10:00:02.173Z,41.90
2018-05-06T10:02:28.559Z,42.90
2018-05-06T10:04:55.698Z,42.50
2018-05-06T10:07:22.839Z,42.60
2018-05-06T10:09:49.969Z,41.30
2018-05-06T10:12:16.454Z,41.00
2018-05-06T10:14:42.859Z,40.90
2018-05-06T10:17:09.982Z,40.70
2018-05-06T10:19:36.386Z,40.60
2018-05-06T10:22:02.794Z,39.90
2018-05-06T10:24:29.951Z,40.70
2018-05-06T10:26:56.376Z,41.30
2018-05-06T10:29:23.520Z,41.80
2018-05-06T10:31:50.647Z,42.30
2018-05-06T10:34:17.822Z,41.90
2018-05-06T10:36:44.385Z,41.70
2018-05-06T10:39:10.783Z,40.70
2018-05-06T10:41:37.922Z,44.50
2018-05-06T10:44:05.205Z,41.80
2018-05-06T10:46:31.605Z,41.30
2018-05-06T10:48:58.069Z,40.80
2018-05-06T10:51:24.429Z,41.60
2018-05-06T10:53:50.844Z,40.40
2018-05-06T10:56:17.969Z,41.20
2018-05-06T10:58:45.105Z,41.20
2018-05-06T11:01:12.244Z,41.80
2018-05-06T11:03:38.652Z,41.70
2018-05-06T11:06:05.034Z,41.60
2018-05-06T11:08:32.209Z,40.40
2018-05-06T11:10:58.584Z,40.40
2018-05-06T11:13:24.984Z,41.10
2018-05-06T11:15:51.369Z,38.00
2018-05-06T11:18:17.857Z,38.90
2018-05-06T11:20:44.193Z,39.80
2018-05-06T11:23:10.598Z,38.50
2018-05-06T11:25:36.994Z,40.00
2018-05-06T11:28:04.933Z,39.60
2018-05-06T11:30:32.152Z,40.60
2018-05-06T11:32:58.526Z,39.80
2018-05-06T11:35:24.930Z,41.90
2018-05-06T11:37:51.350Z,38.60
2018-05-06T11:40:17.785Z,41.50
2018-05-06T11:42:44.184Z,40.30
2018-05-06T11:45:10.632Z,40.60
2018-05-06T11:47:37.048Z,39.90
2018-05-06T11:50:04.177Z,39.70
2018-05-06T11:52:30.574Z,39.60
2018-05-06T11:54:56.964Z,40.10
2018-05-06T11:57:24.089Z,39.90
2018-05-06T11:59:50.508Z,39.80
2018-05-06T12:02:16.917Z,41.60
2018-05-06T12:04:43.321Z,43.00
2018-05-06T12:07:10.460Z,40.30
2018-05-06T12:09:36.850Z,40.30
2018-05-06T12:12:03.255Z,41.70
2018-05-06T12:14:29.635Z,43.00
2018-05-06T12:16:56.025Z,40.10
2018-05-06T12:19:22.415Z,39.20
2018-05-06T12:21:48.806Z,40.00
2018-05-06T12:24:15.193Z,40.10
2018-05-06T12:26:41.581Z,42.50
2018-05-06T12:29:07.998Z,41.60
2018-05-06T12:31:34.388Z,39.00
2018-05-06T12:34:01.526Z,40.20
2018-05-06T12:36:27.939Z,39.50
2018-05-06T12:38:54.336Z,38.70
2018-05-06T12:41:20.775Z,38.60
2018-05-06T12:43:47.167Z,40.70
2018-05-06T12:46:13.568Z,39.30
2018-05-06T12:48:39.963Z,39.20
2018-05-06T12:51:06.379Z,39.60
2018-05-06T12:53:32.766Z,39.70
2018-05-06T12:55:59.144Z,38.10
2018-05-06T12:58:26.268Z,40.80
2018-05-06T13:00:53.387Z,40.60
2018-05-06T13:03:19.778Z,40.60
2018-05-06T13:05:46.252Z,41.40
2018-05-06T13:08:12.636Z,40.40
2018-05-06T13:10:39.776Z,39.50
2018-05-06T13:13:06.155Z,39.40
2018-05-06T13:15:32.551Z,39.00
2018-05-06T13:17:59.668Z,41.30
2018-05-06T13:20:26.076Z,41.20
2018-05-06T13:22:52.485Z,39.00
2018-05-06T13:25:18.894Z,40.00
2018-05-06T13:27:46.078Z,41.00
2018-05-06T13:30:12.473Z,41.00
2018-05-06T13:32:39.661Z,40.20
2018-05-06T13:35:06.094Z,39.90
2018-05-06T13:37:32.480Z,39.60
2018-05-06T13:39:58.874Z,38.00
2018-05-06T13:42:25.272Z,39.70
2018-05-06T13:44:52.435Z,40.10
2018-05-06T13:47:18.849Z,40.10
2018-05-06T13:49:46.066Z,40.10
2018-05-06T13:52:12.421Z,40.20
2018-05-06T13:54:39.575Z,40.30
2018-05-06T13:57:06.755Z,39.30
2018-05-06T13:59:33.150Z,38.70
2018-05-06T14:02:00.270Z,38.70
2018-05-06T14:04:26.673Z,38.70
2018-05-06T14:06:53.139Z,38.10
2018-05-06T14:09:19.532Z,39.60
2018-05-06T14:11:45.921Z,39.10
2018-05-06T14:14:13.802Z,40.80
2018-05-06T14:16:41.676Z,41.10
2018-05-06T14:19:08.803Z,41.40
2018-05-06T14:21:36.703Z,39.80
2018-05-06T14:24:03.098Z,39.70
2018-05-06T14:26:29.501Z,40.80
2018-05-06T14:28:55.898Z,40.80
2018-05-06T14:31:23.021Z,39.80
2018-05-06T14:33:50.939Z,40.90
2018-05-06T14:36:17.345Z,40.80
2018-05-06T14:38:44.478Z,39.10
2018-05-06T14:41:11.616Z,40.60
2018-05-06T14:43:38.010Z,40.30
2018-05-06T14:46:04.471Z,39.30
2018-05-06T14:48:30.979Z,39.20
2018-05-06T14:50:57.305Z,39.10
2018-05-06T14:53:23.695Z,38.30
2018-05-06T14:55:50.182Z,40.00
2018-05-06T14:58:17.327Z,38.80
2018-05-06T15:00:43.718Z,38.80
2018-05-06T15:03:10.861Z,40.20
2018-05-06T15:05:38.742Z,39.40
2018-05-06T15:08:05.888Z,39.70
2018-05-06T15:10:33.979Z,39.30
2018-05-06T15:13:00.348Z,39.20
2018-05-06T15:15:26.763Z,38.30
2018-05-06T15:17:53.149Z,39.00
2018-05-06T15:20:21.020Z,40.10
2018-05-06T15:22:48.151Z,40.00
2018-05-06T15:25:14.617Z,40.00
2018-05-06T15:27:40.971Z,41.10
2018-05-06T15:30:07.411Z,39.70
2018-05-06T15:32:33.807Z,39.50
2018-05-06T15:35:00.970Z,39.40
2018-05-06T15:37:27.354Z,39.40
2018-05-06T15:39:53.779Z,40.30
2018-05-06T15:42:20.174Z,40.30
2018-05-06T15:44:47.315Z,40.40
2018-05-06T15:47:14.434Z,40.20
2018-05-06T15:49:40.866Z,40.20
2018-05-06T15:52:07.311Z,40.00
2018-05-06T15:54:33.724Z,41.10
2018-05-06T15:57:00.131Z,40.10
2018-05-06T15:59:26.560Z,39.80
2018-05-06T16:02:05.186Z,40.00
2018-05-06T16:04:31.600Z,40.60
2018-05-06T16:06:58.000Z,40.20
2018-05-06T16:09:25.137Z,40.40
2018-05-06T16:11:51.755Z,40.40
2018-05-06T16:14:18.182Z,41.20
2018-05-06T16:16:44.569Z,39.60
2018-05-06T16:19:11.749Z,38.50
2018-05-06T16:21:38.136Z,38.50
2018-05-06T16:24:06.015Z,39.20
2018-05-06T16:26:33.229Z,38.80
2018-05-06T16:29:00.302Z,39.10
2018-05-06T16:31:27.445Z,39.60
2018-05-06T16:33:55.324Z,38.50
2018-05-06T16:36:21.722Z,38.50
2018-05-06T16:38:48.120Z,39.50
2018-05-06T16:41:14.514Z,39.20
2018-05-06T16:43:42.418Z,40.10
2018-05-06T16:46:08.802Z,40.10
2018-05-06T16:48:35.240Z,41.30
2018-05-06T16:51:01.636Z,40.80
2018-05-06T16:53:28.052Z,40.50
2018-05-06T16:55:54.441Z,41.40
2018-05-06T16:58:20.855Z,41.90
2018-05-06T17:00:47.297Z,42.60
2018-05-06T17:03:13.690Z,43.70
2018-05-06T17:05:40.767Z,43.40
2018-05-06T17:08:07.214Z,43.00
2018-05-06T17:10:33.618Z,43.40
2018-05-06T17:13:00.028Z,44.10
2018-05-06T17:15:26.419Z,43.80
2018-05-06T17:17:52.921Z,43.80
2018-05-06T17:20:19.361Z,43.00
2018-05-06T17:22:45.912Z,43.30
2018-05-06T17:25:12.314Z,44.60
2018-05-06T17:27:39.749Z,44.00
2018-05-06T17:30:06.733Z,44.70
2018-05-06T17:32:33.140Z,45.50
2018-05-06T17:34:59.541Z,45.70
2018-05-06T17:37:26.735Z,44.00
2018-05-06T17:39:53.141Z,43.90
2018-05-06T17:42:19.576Z,44.00
2018-05-06T17:44:46.022Z,43.70
2018-05-06T17:47:12.444Z,44.00
2018-05-06T17:49:38.892Z,44.30
2018-05-06T17:52:05.274Z,45.00
2018-05-06T17:54:33.173Z,43.90
2018-05-06T17:57:00.316Z,44.40
2018-05-06T17:59:27.445Z,45.40
2018-05-06T18:01:53.861Z,45.30
2018-05-06T18:04:20.283Z,44.80
2018-05-06T18:06:46.772Z,44.90
2018-05-06T18:09:14.149Z,44.90
2018-05-06T18:11:40.558Z,45.20
2018-05-06T18:14:07.708Z,45.80
2018-05-06T18:16:34.842Z,46.10
2018-05-06T18:19:02.025Z,46.10
2018-05-06T18:21:28.436Z,46.50
2018-05-06T18:23:55.572Z,47.50
2018-05-06T18:26:22.042Z,47.50
2018-05-06T18:28:48.445Z,48.10
2018-05-06T18:31:15.570Z,49.60
2018-05-06T18:33:41.967Z,49.60
2018-05-06T18:36:08.385Z,50.20
2018-05-06T18:38:34.794Z,50.40
2018-05-06T18:41:01.917Z,50.90
2018-05-06T18:43:28.333Z,51.00
2018-05-06T18:45:54.743Z,51.70
2018-05-06T18:48:21.157Z,52.20
2018-05-06T18:50:47.594Z,53.10
2018-05-06T18:53:14.759Z,53.70
2018-05-06T18:55:41.158Z,53.60
2018-05-06T18:58:07.582Z,53.40
2018-05-06T19:00:34.855Z,53.80
2018-05-06T19:03:01.995Z,54.10
2018-05-06T19:05:29.448Z,54.00
2018-05-06T19:07:56.648Z,54.30
2018-05-06T19:10:23.082Z,54.20
2018-05-06T19:12:49.473Z,54.50
2018-05-06T19:15:16.607Z,55.10
2018-05-06T19:17:42.983Z,55.00
2018-05-06T19:20:09.360Z,55.10
2018-05-06T19:22:35.775Z,55.00
2018-05-06T19:25:02.236Z,55.10
2018-05-06T19:27:29.396Z,55.30
2018-05-06T19:29:55.805Z,55.40
2018-05-06T19:32:22.247Z,55.10
2018-05-06T19:34:49.312Z,55.20
2018-05-06T19:37:16.459Z,55.70
2018-05-06T19:39:42.880Z,55.70
2018-05-06T19:42:09.296Z,56.20
2018-05-06T19:44:35.701Z,56.10
2018-05-06T19:47:02.098Z,56.60
2018-05-06T19:49:29.248Z,57.50
2018-05-06T19:51:55.642Z,57.10
2018-05-06T19:54:22.034Z,57.00
2018-05-06T19:56:48.461Z,57.30
2018-05-06T19:59:15.596Z,57.20
2018-05-06T20:01:42.741Z,57.50
2018-05-06T20:04:09.886Z,57.30
2018-05-06T20:06:36.283Z,57.30
2018-05-06T20:09:02.721Z,58.00
2018-05-06T20:11:29.119Z,57.80
2018-05-06T20:13:55.631Z,58.20
2018-05-06T20:16:22.801Z,58.80
2018-05-06T20:18:49.202Z,58.70
2018-05-06T20:21:15.603Z,58.90
2018-05-06T20:23:41.997Z,59.30
2018-05-06T20:26:08.396Z,59.30
2018-05-06T20:28:36.295Z,59.50
2018-05-06T20:31:03.488Z,59.80
2018-05-06T20:33:30.091Z,59.70
2018-05-06T20:35:56.491Z,60.30
2018-05-06T20:38:22.981Z,60.90
2018-05-06T20:40:49.453Z,61.70
2018-05-06T20:43:16.608Z,61.10
2018-05-06T20:45:43.010Z,60.70
2018-05-06T20:48:09.408Z,60.70
2018-05-06T20:50:35.792Z,61.10
2018-05-06T20:53:02.188Z,61.60
2018-05-06T20:55:28.591Z,62.20
2018-05-06T20:57:55.004Z,62.40
2018-05-06T21:00:22.152Z,62.60
2018-05-06T21:02:49.397Z,62.50
2018-05-06T21:05:17.314Z,62.70
2018-05-06T21:07:44.399Z,63.40
2018-05-06T21:10:10.784Z,62.70
2018-05-06T21:12:37.162Z,62.50
2018-05-06T21:15:03.574Z,63.60
2018-05-06T21:17:30.097Z,64.10
2018-05-06T21:19:56.511Z,64.20
2018-05-06T21:22:23.641Z,63.90
2018-05-06T21:24:50.779Z,64.20
2018-05-06T21:27:17.175Z,64.20
2018-05-06T21:29:43.617Z,64.20
2018-05-06T21:32:09.977Z,64.30
2018-05-06T21:34:36.381Z,64.50
2018-05-06T21:37:02.816Z,64.30
2018-05-06T21:39:29.202Z,65.00
2018-05-06T21:41:56.357Z,65.00
2018-05-06T21:44:22.749Z,64.90
2018-05-06T21:46:49.145Z,65.40
2018-05-06T21:49:15.590Z,65.10
2018-05-06T21:51:41.990Z,65.10
2018-05-06T21:54:08.701Z,65.80
2018-05-06T21:56:35.830Z,66.50
2018-05-06T21:59:02.246Z,66.50
2018-05-06T22:01:28.649Z,66.30
2018-05-06T22:03:55.055Z,66.20
2018-05-06T22:06:22.258Z,67.70
2018-05-06T22:08:48.702Z,68.20
2018-05-06T22:11:15.099Z,67.00
2018-05-06T22:13:41.508Z,66.80
2018-05-06T22:16:08.652Z,67.20
2018-05-06T22:18:35.094Z,67.00
2018-05-06T22:21:02.230Z,67.20
2018-05-06T22:23:28.612Z,67.20
2018-05-06T22:25:55.050Z,67.90
2018-05-06T22:28:21.436Z,67.70
2018-05-06T22:30:48.612Z,67.80
2018-05-06T22:33:15.005Z,67.80
2018-05-06T22:35:41.417Z,67.50
2018-05-06T22:38:07.853Z,67.80
2018-05-06T22:40:34.421Z,67.60
2018-05-06T22:43:01.576Z,67.40
2018-05-06T22:45:28.713Z,68.20
2018-05-06T22:47:55.106Z,68.30
2018-05-06T22:50:21.550Z,68.50
2018-05-06T22:52:47.954Z,70.10
2018-05-06T22:55:14.364Z,70.10
2018-05-06T22:57:40.764Z,70.50
2018-05-06T23:00:07.216Z,70.60
2018-05-06T23:02:34.374Z,70.10
2018-05-06T23:05:01.545Z,70.70
2018-05-06T23:07:27.935Z,70.60
2018-05-06T23:09:54.318Z,70.80
2018-05-06T23:12:20.719Z,72.30
2018-05-06T23:14:47.860Z,73.10
2018-05-06T23:17:15.009Z,73.30
2018-05-06T23:19:42.183Z,73.20
2018-05-06T23:22:08.589Z,72.90
2018-05-06T23:24:35.027Z,73.00
2018-05-06T23:27:02.147Z,73.40
2018-05-06T23:29:28.535Z,73.40
2018-05-06T23:31:54.924Z,73.90
2018-05-06T23:34:22.847Z,74.90
2018-05-06T23:36:49.958Z,75.20
2018-05-06T23:39:17.084Z,74.60
2018-05-06T23:41:43.479Z,74.40
2018-05-06T23:44:09.854Z,74.40
2018-05-06T23:46:37.766Z,74.40
2018-05-06T23:49:04.197Z,74.30
2018-05-06T23:51:30.584Z,73.50
2018-05-06T23:53:56.992Z,73.10
2018-05-06T23:56:23.461Z,73.00
2018-05-06T23:58:50.606Z,72.50
